Time;durP1;ratioP1;P1;durP2;ratioP2;P2;SDS_P1;SDS_P2;PMS_P1;PMS_P2;Temp;Humidity;BMP_temperature;BMP_pressure;BME280_temperature;BME280_humidity;BME280_pressure;Samples;Min_cycle;Max_cycle;Signal;HPM_P1;HPM_P2
2021/10/07 00:00:10;;;;;;;0.30;0.30;;;;;;;7.02;100.00;101753.69;5011457;28;20041;-82
2021/10/07 00:02:43;;;;;;;0.20;0.20;;;;;;;6.96;100.00;101744.63;5012656;28;20052;-84
2021/10/07 00:05:17;;;;;;;0.20;0.20;;;;;;;6.97;100.00;101751.69;5012185;28;20046;-83
2021/10/07 00:07:50;;;;;;;0.10;0.10;;;;;;;6.91;100.00;101749.88;5000900;28;20057;-82
2021/10/07 00:10:23;;;;;;;0.30;0.30;;;;;;;6.92;100.00;101761.56;5020559;28;20393;-83
2021/10/07 00:12:52;;;;;;;0.20;0.20;;;;;;;6.96;100.00;101766.28;5032078;28;20401;-83
2021/10/07 00:15:20;;;;;;;0.20;0.20;;;;;;;6.94;100.00;101771.06;5014213;28;20523;-82
2021/10/07 00:17:57;;;;;;;0.13;0.13;;;;;;;6.93;100.00;101776.72;5013996;28;20068;-82
2021/10/07 00:20:48;;;;;;;0.20;0.20;;;;;;;6.89;100.00;101781.78;5029968;28;20050;-82
2021/10/07 00:23:25;;;;;;;0.10;0.10;;;;;;;6.82;100.00;101767.47;5013469;28;20429;-82
2021/10/07 00:25:58;;;;;;;0.30;0.30;;;;;;;6.84;100.00;101778.91;5030640;28;20045;-82
2021/10/07 00:28:33;;;;;;;0.20;0.20;;;;;;;6.84;100.00;101786.22;5004730;28;20037;-82
2021/10/07 00:31:11;;;;;;;0.20;0.20;;;;;;;6.84;100.00;101795.16;5032289;28;20041;-82
2021/10/07 00:33:57;;;;;;;0.20;0.20;;;;;;;6.85;100.00;101796.81;5027516;28;20041;-82
2021/10/07 00:36:41;;;;;;;0.20;0.20;;;;;;;6.56;100.00;101774.03;5026122;28;20049;-82
2021/10/07 00:39:09;;;;;;;0.43;0.20;;;;;;;6.72;100.00;101795.06;5013099;28;20056;-83
2021/10/07 00:41:46;;;;;;;0.20;0.20;;;;;;;6.59;100.00;101795.25;5031026;28;20409;-83
2021/10/07 00:44:20;;;;;;;0.30;0.30;;;;;;;6.61;100.00;101802.06;5012940;28;20401;-83
2021/10/07 00:46:50;;;;;;;0.20;0.20;;;;;;;6.56;100.00;101790.28;5013551;28;20061;-83
2021/10/07 00:49:25;;;;;;;0.20;0.20;;;;;;;6.60;100.00;101795.03;5014135;28;20049;-82
2021/10/07 00:51:59;;;;;;;0.20;0.20;;;;;;;6.64;100.00;101807.03;5028920;28;20057;-81
2021/10/07 00:54:33;;;;;;;0.20;0.20;;;;;;;6.58;100.00;101799.00;5014405;28;20042;-82
2021/10/07 00:57:05;;;;;;;0.20;0.20;;;;;;;6.60;100.00;101808.53;5014018;28;20053;-82
2021/10/07 00:59:38;;;;;;;0.15;0.15;;;;;;;6.57;100.00;101808.16;5011872;28;20045;-83
2021/10/07 01:02:09;;;;;;;0.20;0.20;;;;;;;6.56;100.00;101820.03;5013801;28;20056;-83
2021/10/07 01:04:44;;;;;;;0.20;0.20;;;;;;;6.54;100.00;101824.84;5010035;28;20054;-83
2021/10/07 01:07:17;;;;;;;0.20;0.20;;;;;;;6.51;100.00;101828.81;5013281;28;20077;-83
2021/10/07 01:09:46;;;;;;;0.20;0.20;;;;;;;6.50;100.00;101819.03;5031312;28;20072;-82
2021/10/07 01:12:15;;;;;;;0.20;0.20;;;;;;;6.44;100.00;101828.88;5030855;28;20049;-83
2021/10/07 01:14:52;;;;;;;0.15;0.15;;;;;;;6.39;100.00;101831.41;5013359;28;20049;-83
2021/10/07 01:17:27;;;;;;;0.20;0.20;;;;;;;6.35;100.00;101819.41;5014173;28;20049;-82
2021/10/07 01:19:58;;;;;;;0.20;0.20;;;;;;;6.47;100.00;101825.72;5030111;28;20068;-82
2021/10/07 01:22:32;;;;;;;0.20;0.20;;;;;;;6.43;100.00;101840.75;5020590;28;20053;-82
2021/10/07 01:25:06;;;;;;;0.20;0.20;;;;;;;6.35;100.00;101837.50;5031083;28;20046;-83
2021/10/07 01:27:39;;;;;;;0.10;0.10;;;;;;;6.29;100.00;101837.34;5006874;28;20489;-83
2021/10/07 01:30:13;;;;;;;0.20;0.20;;;;;;;6.24;100.00;101845.31;5017461;28;20504;-82
2021/10/07 01:32:46;;;;;;;0.10;0.10;;;;;;;6.35;100.00;101849.13;5016764;28;20409;-82
2021/10/07 01:35:21;;;;;;;0.17;0.17;;;;;;;6.37;100.00;101849.75;5017258;28;20045;-82
2021/10/07 01:37:49;;;;;;;0.20;0.20;;;;;;;6.35;100.00;101851.84;5017210;28;20057;-83
2021/10/07 01:40:18;;;;;;;0.20;0.20;;;;;;;6.34;100.00;101844.81;5016212;28;20049;-83
2021/10/07 01:42:46;;;;;;;0.20;0.20;;;;;;;6.31;100.00;101845.22;5034447;28;20052;-82
2021/10/07 01:45:20;;;;;;;0.20;0.20;;;;;;;6.24;100.00;101841.75;5033281;28;20061;-83
2021/10/07 01:47:53;;;;;;;0.10;0.10;;;;;;;6.29;100.00;101847.34;5033511;28;20056;-83
2021/10/07 01:50:22;;;;;;;0.20;0.20;;;;;;;6.28;100.00;101845.69;5035365;28;20050;-83
2021/10/07 01:52:56;;;;;;;0.10;0.10;;;;;;;6.26;100.00;101842.38;5034536;28;20049;-83
2021/10/07 01:55:24;;;;;;;0.20;0.20;;;;;;;6.21;100.00;101855.72;5035184;28;20393;-83
2021/10/07 01:57:57;;;;;;;0.17;0.17;;;;;;;6.09;100.00;101828.59;5027281;28;20054;-83
2021/10/07 02:00:31;;;;;;;0.20;0.20;;;;;;;6.19;100.00;101845.16;5016969;28;20056;-83
2021/10/07 02:02:59;;;;;;;0.20;0.20;;;;;;;6.16;100.00;101845.59;5032166;28;20421;-82
2021/10/07 02:05:52;;;;;;;0.10;0.10;;;;;;;6.14;100.00;101847.69;5014407;28;20049;-82
2021/10/07 02:08:25;;;;;;;0.20;0.20;;;;;;;6.16;100.00;101863.66;5012864;28;20045;-82
2021/10/07 02:10:58;;;;;;;0.17;0.17;;;;;;;6.09;100.00;101858.31;5013704;28;20046;-82
2021/10/07 02:13:28;;;;;;;0.20;0.20;;;;;;;6.06;100.00;101867.72;5014724;28;20045;-83
2021/10/07 02:15:58;;;;;;;0.20;0.20;;;;;;;6.08;100.00;101862.91;5034340;28;20041;-83
2021/10/07 02:18:32;;;;;;;0.20;0.20;;;;;;;6.12;100.00;101868.72;5028895;28;20494;-83
2021/10/07 02:21:01;;;;;;;0.17;0.17;;;;;;;6.17;100.00;101876.97;5034006;28;20045;-82
2021/10/07 02:23:35;;;;;;;0.20;0.20;;;;;;;6.10;100.00;101877.03;5034441;28;20045;-82
2021/10/07 02:26:03;;;;;;;0.15;0.15;;;;;;;6.08;100.00;101876.41;5018867;28;20391;-82
2021/10/07 02:28:31;;;;;;;0.20;0.20;;;;;;;6.02;100.00;101873.75;5032017;28;20041;-83
2021/10/07 02:31:06;;;;;;;0.20;0.20;;;;;;;5.98;100.00;101872.53;5016630;28;20409;-84
2021/10/07 02:33:34;;;;;;;0.20;0.20;;;;;;;5.94;100.00;101883.78;5015238;28;20064;-83
2021/10/07 02:36:09;;;;;;;0.40;0.20;;;;;;;5.90;100.00;101874.44;5015675;28;20038;-82
2021/10/07 02:38:42;;;;;;;0.25;0.25;;;;;;;5.95;100.00;101871.91;5014188;28;20054;-83
2021/10/07 02:41:15;;;;;;;0.20;0.20;;;;;;;6.04;100.00;101888.72;5033343;28;20048;-83
2021/10/07 02:43:48;;;;;;;0.25;0.25;;;;;;;6.07;100.00;101879.34;5034048;28;20473;-84
2021/10/07 02:46:22;;;;;;;0.20;0.20;;;;;;;6.01;100.00;101891.84;5033596;28;20097;-82
2021/10/07 02:48:55;;;;;;;0.20;0.20;;;;;;;6.03;100.00;101895.16;5014456;28;20516;-83
2021/10/07 02:51:25;;;;;;;0.28;0.28;;;;;;;5.98;100.00;101886.06;5033685;28;20041;-83
2021/10/07 02:53:58;;;;;;;0.20;0.20;;;;;;;5.89;100.00;101898.97;5009109;28;20056;-82
2021/10/07 02:56:32;;;;;;;0.10;0.10;;;;;;;5.84;100.00;101888.84;5010993;28;20049;-82
2021/10/07 02:59:00;;;;;;;0.20;0.20;;;;;;;5.86;100.00;101897.53;5026040;28;20042;-83
2021/10/07 03:01:28;;;;;;;0.20;0.20;;;;;;;5.86;100.00;101894.84;5027041;28;20057;-84
2021/10/07 03:03:57;;;;;;;0.40;0.30;;;;;;;5.89;100.00;101904.38;5033987;28;20054;-83
2021/10/07 03:06:32;;;;;;;0.20;0.20;;;;;;;5.90;100.00;101909.56;5015319;28;20069;-83
2021/10/07 03:09:05;;;;;;;0.20;0.20;;;;;;;5.67;100.00;101877.72;5033342;28;20045;-83
2021/10/07 03:11:38;;;;;;;0.20;0.20;;;;;;;5.94;100.00;101912.69;5015263;28;20057;-83
2021/10/07 03:14:07;;;;;;;0.13;0.13;;;;;;;5.95;100.00;101920.56;5030730;28;20543;-83
2021/10/07 03:16:40;;;;;;;0.10;0.10;;;;;;;5.91;100.00;101921.19;5033024;28;20042;-82
2021/10/07 03:19:13;;;;;;;0.20;0.20;;;;;;;5.90;100.00;101922.25;5011285;28;20053;-83
2021/10/07 03:21:48;;;;;;;0.20;0.20;;;;;;;5.85;100.00;101914.78;5043134;28;20057;-82
2021/10/07 03:24:21;;;;;;;0.20;0.20;;;;;;;5.97;100.00;101925.75;5012400;28;20410;-84
2021/10/07 03:26:57;;;;;;;0.20;0.20;;;;;;;5.82;100.00;101933.31;5014860;28;20046;-83
2021/10/07 03:29:30;;;;;;;0.20;0.20;;;;;;;5.79;100.00;101926.47;5015789;28;20391;-84
2021/10/07 03:32:05;;;;;;;0.22;0.22;;;;;;;5.73;100.00;101936.28;5032116;28;20406;-84
2021/10/07 03:34:38;;;;;;;0.20;0.20;;;;;;;5.80;100.00;101936.25;5014315;28;20056;-82
2021/10/07 03:37:13;;;;;;;0.20;0.20;;;;;;;5.82;100.00;101950.34;5014920;28;20409;-82
2021/10/07 03:39:46;;;;;;;0.20;0.20;;;;;;;5.65;100.00;101947.34;5031258;28;20053;-82
2021/10/07 03:42:15;;;;;;;0.20;0.20;;;;;;;5.69;100.00;101956.66;5006247;28;20061;-83
2021/10/07 03:44:50;;;;;;;0.20;0.20;;;;;;;5.70;100.00;101954.78;5015199;28;20049;-83
2021/10/07 03:47:18;;;;;;;0.30;0.30;;;;;;;5.69;100.00;101948.56;5033214;28;20037;-83
2021/10/07 03:49:53;;;;;;;0.20;0.20;;;;;;;5.71;100.00;101956.44;5014647;28;20057;-83
2021/10/07 03:52:27;;;;;;;0.10;0.10;;;;;;;5.77;100.00;101959.13;5032054;28;20453;-83
2021/10/07 03:55:01;;;;;;;0.20;0.20;;;;;;;5.50;100.00;101944.91;5030891;28;20519;-83
2021/10/07 03:57:30;;;;;;;0.20;0.20;;;;;;;5.61;100.00;101965.81;5014810;28;20045;-82
2021/10/07 04:00:05;;;;;;;0.13;0.13;;;;;;;5.62;100.00;101972.03;5014380;28;20045;-83
2021/10/07 04:02:39;;;;;;;0.10;0.10;;;;;;;5.67;100.00;101980.34;5038632;28;20046;-83
2021/10/07 04:05:12;;;;;;;0.30;0.30;;;;;;;5.71;100.00;101984.28;5017433;28;20049;-82
2021/10/07 04:07:43;;;;;;;0.20;0.20;;;;;;;5.68;100.00;101983.88;5014189;28;20532;-82
2021/10/07 04:10:17;;;;;;;0.20;0.20;;;;;;;5.71;100.00;101991.56;5014749;28;20052;-81
2021/10/07 04:12:45;;;;;;;0.22;0.22;;;;;;;5.54;100.00;101989.34;5013786;28;20057;-82
2021/10/07 04:15:26;;;;;;;0.20;0.20;;;;;;;5.61;100.00;101995.53;5014756;28;20053;-82
2021/10/07 04:17:55;;;;;;;0.20;0.20;;;;;;;5.49;100.00;102004.53;5014728;28;20045;-82
2021/10/07 04:20:28;;;;;;;0.15;0.15;;;;;;;5.46;100.00;102005.78;5013396;28;20103;-82
2021/10/07 04:23:03;;;;;;;0.20;0.20;;;;;;;5.50;100.00;102004.31;5031535;28;20041;-82
2021/10/07 04:25:37;;;;;;;0.20;0.20;;;;;;;5.30;100.00;101979.25;5019109;28;20046;-81
2021/10/07 04:28:07;;;;;;;0.20;0.20;;;;;;;5.51;100.00;102016.78;5011412;28;20053;-82
2021/10/07 04:30:41;;;;;;;0.20;0.20;;;;;;;5.53;100.00;102022.78;5014591;28;20052;-81
2021/10/07 04:33:15;;;;;;;0.10;0.10;;;;;;;5.46;100.00;102021.97;5005106;28;20053;-82
2021/10/07 04:35:48;;;;;;;0.35;0.25;;;;;;;5.54;100.00;102037.94;5013894;28;20049;-82
2021/10/07 04:38:23;;;;;;;0.15;0.15;;;;;;;5.48;100.00;102030.69;5030732;28;20045;-82
2021/10/07 04:40:58;;;;;;;0.10;0.10;;;;;;;5.47;100.00;102042.53;5014497;28;20057;-84
2021/10/07 04:43:26;;;;;;;0.20;0.20;;;;;;;5.47;100.00;102039.84;5013852;28;20057;-82
2021/10/07 04:46:00;;;;;;;0.15;0.15;;;;;;;5.43;100.00;102034.03;5030048;28;20060;-82
2021/10/07 04:48:33;;;;;;;0.20;0.20;;;;;;;5.47;100.00;102044.41;5032474;28;20042;-82
2021/10/07 04:51:06;;;;;;;0.45;0.25;;;;;;;5.49;100.00;102051.25;5031470;28;20045;-82
2021/10/07 04:53:41;;;;;;;0.10;0.10;;;;;;;5.45;100.00;102050.00;5014297;28;20125;-82
2021/10/07 04:56:09;;;;;;;0.20;0.20;;;;;;;5.38;100.00;102039.22;5026203;28;20064;-82
2021/10/07 04:58:37;;;;;;;0.20;0.20;;;;;;;5.42;100.00;102053.13;5010644;28;20409;-82
2021/10/07 05:01:12;;;;;;;0.10;0.10;;;;;;;5.20;100.00;102039.88;5012007;28;20053;-85
2021/10/07 05:03:45;;;;;;;0.20;0.20;;;;;;;5.34;100.00;102064.97;5036251;28;20049;-82
2021/10/07 05:06:18;;;;;;;0.20;0.20;;;;;;;5.38;100.00;102074.31;5031629;28;20053;-82
2021/10/07 05:08:53;;;;;;;0.20;0.20;;;;;;;5.36;100.00;102073.72;5033621;28;20064;-81
2021/10/07 05:11:26;;;;;;;0.20;0.20;;;;;;;5.38;100.00;102079.72;5015876;28;20057;-82
2021/10/07 05:14:00;;;;;;;0.20;0.20;;;;;;;5.40;100.00;102085.75;5016843;28;20050;-82
2021/10/07 05:16:33;;;;;;;0.10;0.10;;;;;;;5.35;100.00;102096.34;5012724;28;20046;-82
2021/10/07 05:19:06;;;;;;;0.20;0.20;;;;;;;5.14;100.00;102080.38;5027906;28;20060;-82
2021/10/07 05:21:39;;;;;;;0.20;0.20;;;;;;;5.20;100.00;102101.16;5017301;28;20060;-83
2021/10/07 05:24:14;;;;;;;0.10;0.10;;;;;;;5.11;100.00;102093.25;5015167;28;20057;-82
2021/10/07 05:26:47;;;;;;;0.20;0.20;;;;;;;5.09;100.00;102108.00;5017456;28;20057;-82
2021/10/07 05:29:16;;;;;;;0.10;0.10;;;;;;;5.08;100.00;102095.53;5035388;28;20056;-83
2021/10/07 05:31:49;;;;;;;0.20;0.20;;;;;;;5.14;100.00;102100.09;5012616;28;20048;-82
2021/10/07 05:34:22;;;;;;;0.20;0.20;;;;;;;5.21;100.00;102116.31;5016620;28;20053;-82
2021/10/07 05:36:56;;;;;;;0.20;0.20;;;;;;;5.10;100.00;102106.97;5017448;28;20053;-83
2021/10/07 05:39:30;;;;;;;0.20;0.20;;;;;;;5.16;100.00;102118.78;5033869;28;20416;-82
2021/10/07 05:42:24;;;;;;;0.10;0.10;;;;;;;5.09;100.00;102119.59;5015753;28;20421;-82
2021/10/07 05:44:57;;;;;;;1.45;0.22;;;;;;;5.15;100.00;102117.13;5032441;28;20054;-83
2021/10/07 05:47:25;;;;;;;0.30;0.30;;;;;;;5.11;100.00;102122.13;5017092;28;20057;-83
2021/10/07 05:49:58;;;;;;;0.20;0.20;;;;;;;5.21;100.00;102122.53;5032001;28;20053;-82
2021/10/07 05:52:32;;;;;;;0.20;0.20;;;;;;;5.30;100.00;102123.13;5034753;28;20037;-83
2021/10/07 05:55:08;;;;;;;0.30;0.30;;;;;;;5.32;100.00;102125.63;5033061;28;20049;-82
2021/10/07 05:57:41;;;;;;;0.20;0.20;;;;;;;5.40;100.00;102138.91;5029530;28;20060;-82
2021/10/07 06:00:15;;;;;;;0.22;0.22;;;;;;;5.39;100.00;102134.56;5025299;28;20052;-85
2021/10/07 06:02:50;;;;;;;0.20;0.20;;;;;;;5.45;100.00;102141.81;5016139;28;20048;-82
2021/10/07 06:05:23;;;;;;;0.20;0.20;;;;;;;5.48;100.00;102141.38;5032047;28;20056;-83
2021/10/07 06:07:56;;;;;;;0.20;0.20;;;;;;;5.53;100.00;102148.88;5032706;28;20394;-84
2021/10/07 06:10:31;;;;;;;0.20;0.20;;;;;;;5.58;100.00;102144.50;5026947;28;20038;-82
2021/10/07 06:13:09;;;;;;;0.20;0.20;;;;;;;5.60;100.00;102152.38;5034810;28;20053;-82
2021/10/07 06:15:42;;;;;;;0.28;0.28;;;;;;;5.63;100.00;102154.66;5016281;28;20056;-82
2021/10/07 06:18:10;;;;;;;0.20;0.20;;;;;;;5.56;100.00;102156.56;5016620;28;20049;-82
2021/10/07 06:20:44;;;;;;;0.20;0.20;;;;;;;5.60;100.00;102157.78;5034172;28;20050;-81
2021/10/07 06:23:17;;;;;;;0.17;0.17;;;;;;;5.53;100.00;102156.97;5010679;28;20053;-82
2021/10/07 06:25:47;;;;;;;0.20;0.20;;;;;;;5.39;100.00;102167.78;5034125;28;21545;-81
2021/10/07 06:28:20;;;;;;;0.10;0.10;;;;;;;5.15;100.00;102176.50;5028513;28;20037;-82
2021/10/07 06:30:53;;;;;;;0.20;0.20;;;;;;;5.06;100.00;102165.91;5033060;28;20056;-82
2021/10/07 06:33:27;;;;;;;0.17;0.17;;;;;;;5.25;100.00;102174.22;5015786;28;20049;-82
2021/10/07 06:35:56;;;;;;;0.17;0.17;;;;;;;5.26;100.00;102183.97;5028203;28;20056;-82
2021/10/07 06:38:30;;;;;;;0.20;0.20;;;;;;;5.38;100.00;102184.19;5000855;28;20053;-82
2021/10/07 06:41:14;;;;;;;0.20;0.20;;;;;;;5.47;100.00;102187.50;5023450;28;20064;-84
2021/10/07 06:43:47;;;;;;;0.20;0.20;;;;;;;5.53;100.00;102205.59;5019765;28;20049;-84
2021/10/07 06:46:21;;;;;;;0.20;0.20;;;;;;;5.40;100.00;102201.84;5023158;28;20053;-83
2021/10/07 06:49:00;;;;;;;0.10;0.10;;;;;;;5.42;100.00;102202.44;5018987;28;20053;-82
2021/10/07 06:51:29;;;;;;;0.20;0.20;;;;;;;5.43;100.00;102198.72;5005063;28;20061;-82
2021/10/07 06:54:03;;;;;;;0.20;0.20;;;;;;;5.58;100.00;102203.91;5019540;28;20511;-84
2021/10/07 06:56:37;;;;;;;0.20;0.20;;;;;;;5.62;100.00;102201.63;5000584;28;20057;-82
2021/10/07 06:59:06;;;;;;;0.20;0.20;;;;;;;5.82;100.00;102208.88;5022019;28;20045;-82
2021/10/07 07:01:34;;;;;;;0.20;0.20;;;;;;;5.91;100.00;102213.84;5023204;28;20041;-81
2021/10/07 07:04:29;;;;;;;0.20;0.20;;;;;;;6.03;100.00;102208.66;5005429;28;20054;-82
2021/10/07 07:07:04;;;;;;;0.17;0.17;;;;;;;6.12;100.00;102215.50;5024147;28;20049;-82
2021/10/07 07:09:37;;;;;;;0.10;0.10;;;;;;;6.27;100.00;102217.09;4991990;28;20137;-84
2021/10/07 07:12:29;;;;;;;0.20;0.20;;;;;;;6.41;100.00;102226.84;4994193;28;20426;-82
2021/10/07 07:15:07;;;;;;;0.20;0.20;;;;;;;6.50;100.00;102208.50;5000334;28;20058;-82
2021/10/07 07:17:41;;;;;;;0.20;0.20;;;;;;;6.64;100.00;102223.63;4989462;28;20073;-83
2021/10/07 07:20:10;;;;;;;0.28;0.20;;;;;;;6.72;100.00;102224.44;4992875;28;20585;-82
2021/10/07 07:22:44;;;;;;;0.20;0.20;;;;;;;6.87;100.00;102232.25;4993317;28;20072;-83
2021/10/07 07:25:12;;;;;;;0.20;0.20;;;;;;;6.93;100.00;102236.78;4994874;28;20121;-83
2021/10/07 07:27:42;;;;;;;0.20;0.20;;;;;;;7.07;100.00;102237.53;4993036;28;20062;-82
2021/10/07 07:30:19;;;;;;;0.20;0.20;;;;;;;7.11;100.00;102239.63;4991900;28;20065;-83
2021/10/07 07:32:52;;;;;;;0.20;0.20;;;;;;;7.18;100.00;102239.56;4992788;28;20045;-82
2021/10/07 07:35:29;;;;;;;0.20;0.20;;;;;;;7.27;100.00;102246.38;4990262;28;20054;-81
2021/10/07 07:38:04;;;;;;;0.20;0.20;;;;;;;7.35;100.00;102252.56;4985611;28;20054;-83
2021/10/07 07:40:34;;;;;;;0.25;0.25;;;;;;;7.41;100.00;102249.00;4987919;28;20088;-82
2021/10/07 07:43:08;;;;;;;0.20;0.20;;;;;;;7.44;100.00;102249.38;4987415;28;20057;-82
2021/10/07 07:45:42;;;;;;;0.20;0.20;;;;;;;7.53;100.00;102255.34;4984419;28;20058;-82
2021/10/07 07:48:15;;;;;;;0.13;0.13;;;;;;;7.64;100.00;102259.22;4986067;28;20053;-82
2021/10/07 07:50:48;;;;;;;0.20;0.20;;;;;;;7.72;100.00;102263.53;4986008;28;20053;-82
2021/10/07 07:53:21;;;;;;;0.20;0.20;;;;;;;7.81;100.00;102257.59;4981653;28;20057;-85
2021/10/07 07:56:01;;;;;;;0.20;0.20;;;;;;;7.91;100.00;102259.00;4981585;28;20065;-83
2021/10/07 07:58:36;;;;;;;0.20;0.20;;;;;;;8.06;100.00;102267.59;4984130;28;20070;-81
2021/10/07 08:01:19;;;;;;;0.20;0.20;;;;;;;8.13;100.00;102262.94;4981650;28;20046;-83
2021/10/07 08:03:54;;;;;;;0.15;0.15;;;;;;;8.35;100.00;102267.91;4983346;28;20054;-82
2021/10/07 08:06:35;;;;;;;0.20;0.20;;;;;;;8.34;100.00;102256.25;4986054;28;20054;-84
2021/10/07 08:09:08;;;;;;;0.20;0.20;;;;;;;8.40;100.00;102257.22;4994384;28;20072;-83
2021/10/07 08:11:45;;;;;;;0.20;0.20;;;;;;;8.41;100.00;102252.63;4998637;28;20061;-82
2021/10/07 08:14:19;;;;;;;0.20;0.20;;;;;;;8.47;100.00;102255.28;5014223;28;20049;-83
2021/10/07 08:16:53;;;;;;;0.30;0.30;;;;;;;8.54;100.00;102254.41;4995021;28;20053;-82
2021/10/07 08:19:26;;;;;;;0.20;0.20;;;;;;;8.64;100.00;102254.69;4998697;28;20044;-80
2021/10/07 08:21:59;;;;;;;0.20;0.20;;;;;;;8.70;100.00;102242.94;4998089;28;20053;-83
2021/10/07 08:24:33;;;;;;;0.20;0.20;;;;;;;8.90;100.00;102249.97;5014146;28;20054;-82
2021/10/07 08:27:07;;;;;;;0.22;0.22;;;;;;;9.02;100.00;102259.81;4992676;28;20054;-83
2021/10/07 08:29:37;;;;;;;0.20;0.20;;;;;;;9.08;100.00;102258.06;4998614;28;20069;-83
2021/10/07 08:32:41;;;;;;;0.20;0.20;;;;;;;9.15;100.00;102261.50;5018883;28;20049;-85
2021/10/07 08:35:15;;;;;;;0.22;0.20;;;;;;;9.23;100.00;102271.22;5013017;28;20049;-84
2021/10/07 08:37:48;;;;;;;0.28;0.20;;;;;;;9.27;100.00;102269.69;5012461;28;20057;-82
2021/10/07 08:40:31;;;;;;;0.20;0.20;;;;;;;9.26;100.00;102268.03;5013708;28;20062;-85
2021/10/07 08:43:04;;;;;;;0.20;0.20;;;;;;;9.31;100.00;102270.06;5020225;28;20038;-83
2021/10/07 08:45:39;;;;;;;0.20;0.20;;;;;;;9.27;100.00;102258.00;5014874;28;20060;-81
2021/10/07 08:48:16;;;;;;;0.20;0.20;;;;;;;9.38;100.00;102272.66;5017076;28;20057;-81
2021/10/07 08:50:45;;;;;;;0.20;0.20;;;;;;;9.41;100.00;102277.66;5014412;28;20050;-82
2021/10/07 08:53:18;;;;;;;0.20;0.20;;;;;;;9.55;100.00;102279.09;5017283;28;21815;-86
2021/10/07 08:55:54;;;;;;;0.20;0.20;;;;;;;9.63;100.00;102277.94;5016596;28;20053;-86
2021/10/07 08:58:28;;;;;;;0.20;0.20;;;;;;;9.70;100.00;102281.38;4995056;28;20046;-83
2021/10/07 09:01:04;;;;;;;0.20;0.20;;;;;;;9.75;100.00;102278.78;5003568;28;20056;-82
2021/10/07 09:03:40;;;;;;;0.20;0.20;;;;;;;9.88;100.00;102278.53;5023651;28;20060;-82
2021/10/07 09:06:11;;;;;;;0.20;0.20;;;;;;;9.97;100.00;102278.19;5009010;28;20065;-81
2021/10/07 09:08:46;;;;;;;0.20;0.20;;;;;;;9.85;100.00;102280.91;5004640;28;20068;-82
2021/10/07 09:11:31;;;;;;;0.20;0.20;;;;;;;9.92;100.00;102283.53;5023704;28;20049;-83
2021/10/07 09:14:06;;;;;;;0.22;0.22;;;;;;;9.98;100.00;102286.09;5024057;28;20053;-82
2021/10/07 09:16:46;;;;;;;0.20;0.20;;;;;;;9.99;100.00;102287.75;5005943;28;20077;-83
2021/10/07 09:19:21;;;;;;;0.75;0.30;;;;;;;10.01;100.00;102287.53;5003576;28;20064;-83
2021/10/07 09:21:51;;;;;;;0.20;0.20;;;;;;;10.14;100.00;102291.91;5022975;28;20064;-82
2021/10/07 09:24:32;;;;;;;0.20;0.20;;;;;;;10.18;100.00;102284.94;5021166;28;20049;-82
2021/10/07 09:27:09;;;;;;;0.20;0.20;;;;;;;10.25;100.00;102288.34;5004387;28;20065;-83
2021/10/07 09:29:47;;;;;;;0.30;0.30;;;;;;;10.38;100.00;102284.56;5008099;28;20049;-82
2021/10/07 09:32:25;;;;;;;0.20;0.20;;;;;;;10.41;100.00;102273.19;5021295;28;20062;-85
2021/10/07 09:35:00;;;;;;;0.13;0.13;;;;;;;10.47;100.00;102277.69;5008037;28;20052;-82
2021/10/07 09:37:35;;;;;;;0.20;0.20;;;;;;;10.53;100.00;102289.53;5002396;28;20057;-82
2021/10/07 09:40:11;;;;;;;0.10;0.10;;;;;;;10.38;100.00;102288.13;4999049;28;20048;-82
2021/10/07 09:42:46;;;;;;;0.20;0.20;;;;;;;10.58;100.00;102280.63;5000831;28;20065;-83
2021/10/07 09:45:16;;;;;;;0.20;0.20;;;;;;;10.55;100.00;102287.41;5022359;28;20460;-84
2021/10/07 09:47:53;;;;;;;0.20;0.20;;;;;;;10.62;100.00;102279.91;5006501;28;20061;-82
2021/10/07 09:50:27;;;;;;;0.20;0.20;;;;;;;10.72;100.00;102284.75;5027449;28;20050;-82
2021/10/07 09:53:07;;;;;;;0.20;0.20;;;;;;;10.95;100.00;102272.94;5004339;28;20060;-83
2021/10/07 09:55:37;;;;;;;0.20;0.20;;;;;;;11.00;100.00;102283.09;5023626;28;20075;-83
2021/10/07 09:58:12;;;;;;;0.20;0.20;;;;;;;10.98;100.00;102277.06;5008071;28;20058;-82
2021/10/07 10:00:42;;;;;;;0.20;0.20;;;;;;;11.09;100.00;102284.38;5006508;28;20159;-84
2021/10/07 10:03:18;;;;;;;0.20;0.20;;;;;;;11.08;100.00;102274.53;5025815;28;20052;-83
2021/10/07 10:06:41;;;;;;;0.20;0.20;;;;;;;11.06;100.00;102282.13;5004056;28;20053;-83
2021/10/07 10:09:11;;;;;;;0.20;0.20;;;;;;;11.10;100.00;102277.00;5006558;28;20062;-82
2021/10/07 10:11:44;;;;;;;0.10;0.10;;;;;;;11.19;100.00;102287.28;5022237;28;20580;-84
2021/10/07 10:14:12;;;;;;;0.20;0.20;;;;;;;11.26;100.00;102284.41;5008099;28;20057;-84
2021/10/07 10:16:46;;;;;;;0.20;0.20;;;;;;;11.15;100.00;102288.84;5021168;28;20061;-83
2021/10/07 10:19:16;;;;;;;0.20;0.20;;;;;;;11.51;98.82;102285.94;5025804;28;20053;-82
2021/10/07 10:21:49;;;;;;;0.20;0.20;;;;;;;12.01;96.53;102281.56;5011481;28;20054;-83
2021/10/07 10:24:29;;;;;;;0.20;0.20;;;;;;;11.99;98.15;102287.28;5027018;28;20400;-83
2021/10/07 10:27:04;;;;;;;0.20;0.20;;;;;;;12.12;93.92;102277.91;5007165;28;20065;-82
2021/10/07 10:29:38;;;;;;;0.15;0.15;;;;;;;12.31;92.72;102274.91;5028518;28;20061;-83
2021/10/07 10:32:19;;;;;;;0.20;0.20;;;;;;;12.33;93.93;102272.72;5023499;28;20044;-81
2021/10/07 10:34:54;;;;;;;0.20;0.20;;;;;;;12.41;93.26;102291.41;5006911;28;20061;-82
2021/10/07 10:37:27;;;;;;;0.20;0.20;;;;;;;12.46;92.50;102285.19;5022894;28;20049;-84
2021/10/07 10:40:10;;;;;;;0.20;0.20;;;;;;;12.48;94.92;102280.28;5005295;28;20048;-83
2021/10/07 10:43:30;;;;;;;0.20;0.20;;;;;;;12.41;93.84;102280.47;5018938;28;20064;-82
2021/10/07 10:46:16;;;;;;;0.20;0.20;;;;;;;12.27;97.28;102281.94;5021561;28;20057;-81
2021/10/07 10:49:09;;;;;;;0.22;0.22;;;;;;;12.19;98.35;102277.72;5023002;28;20064;-84
2021/10/07 10:51:49;;;;;;;0.20;0.20;;;;;;;12.10;100.00;102284.69;5004691;28;20060;-83
2021/10/07 10:54:30;;;;;;;0.10;0.10;;;;;;;11.90;100.00;102277.81;5001032;28;20053;-83
2021/10/07 10:57:00;;;;;;;0.17;0.17;;;;;;;12.38;94.82;102275.53;5002953;28;20073;-83
2021/10/07 10:59:37;;;;;;;0.20;0.20;;;;;;;11.97;100.00;102280.41;5015061;28;20054;-82
2021/10/07 11:02:27;;;;;;;0.20;0.20;;;;;;;11.89;100.00;102285.19;5021613;28;20050;-83
2021/10/07 11:05:11;;;;;;;0.20;0.20;;;;;;;11.98;100.00;102292.97;4993377;28;20061;-84
2021/10/07 11:07:41;;;;;;;0.20;0.20;;;;;;;12.02;98.05;102289.50;4987793;28;20061;-82
2021/10/07 11:10:18;;;;;;;0.20;0.20;;;;;;;11.95;97.29;102277.94;5018430;28;20049;-84
2021/10/07 11:12:53;;;;;;;0.20;0.20;;;;;;;12.21;96.53;102290.03;5006563;28;20045;-84
2021/10/07 11:15:29;;;;;;;0.20;0.20;;;;;;;12.00;99.77;102290.81;4997028;28;20449;-83
2021/10/07 11:18:02;;;;;;;0.20;0.20;;;;;;;11.95;100.00;102297.03;5018093;28;20064;-82
2021/10/07 11:20:38;;;;;;;0.20;0.20;;;;;;;11.90;100.00;102294.19;4997364;28;20062;-82
2021/10/07 11:23:10;;;;;;;0.20;0.20;;;;;;;11.99;100.00;102286.44;5000774;28;20064;-82
2021/10/07 11:25:48;;;;;;;0.20;0.20;;;;;;;12.01;100.00;102296.00;5002694;28;20061;-82
2021/10/07 11:28:27;;;;;;;0.30;0.30;;;;;;;12.03;100.00;102291.16;5002975;28;20052;-83
2021/10/07 11:31:01;;;;;;;0.20;0.20;;;;;;;12.05;100.00;102297.16;5020199;28;20046;-81
2021/10/07 11:33:34;;;;;;;0.22;0.22;;;;;;;12.06;99.17;102296.09;5016842;28;20057;-84
2021/10/07 11:36:09;;;;;;;0.30;0.30;;;;;;;12.44;93.63;102282.69;4999393;28;20057;-82
2021/10/07 11:38:46;;;;;;;0.20;0.20;;;;;;;12.97;87.71;102285.81;4998108;28;20065;-81
2021/10/07 11:41:17;;;;;;;0.20;0.20;;;;;;;13.21;86.04;102272.63;5016489;28;20056;-84
2021/10/07 11:43:51;;;;;;;0.17;0.17;;;;;;;12.93;90.20;102284.66;5004987;28;20057;-86
2021/10/07 11:46:25;;;;;;;0.22;0.22;;;;;;;12.64;93.42;102276.69;5016632;28;20449;-83
2021/10/07 11:48:55;;;;;;;0.20;0.20;;;;;;;12.62;93.04;102281.56;5016969;28;20854;-81
2021/10/07 11:51:30;;;;;;;0.20;0.20;;;;;;;12.80;94.93;102283.16;4996647;28;20049;-83
2021/10/07 11:54:07;;;;;;;0.20;0.20;;;;;;;12.67;93.77;102291.72;5014581;28;20044;-84
2021/10/07 11:56:40;;;;;;;0.20;0.20;;;;;;;12.61;93.25;102282.66;5014801;28;20065;-82